sensor_id;sensor_type;location;lat;lon;timestamp;P1;durP1;ratioP1;P2;durP2;ratioP2
81701;SDS011;71115;52.150;4.510;2023-07-20T00:01:23;2.08;;;0.98;;
81701;SDS011;71115;52.150;4.510;2023-07-20T00:03:49;2.33;;;0.80;;
81701;SDS011;71115;52.150;4.510;2023-07-20T00:06:23;3.28;;;0.90;;
81701;SDS011;71115;52.150;4.510;2023-07-20T00:08:50;2.33;;;0.82;;
81701;SDS011;71115;52.150;4.510;2023-07-20T00:11:16;2.60;;;0.80;;
81701;SDS011;71115;52.150;4.510;2023-07-20T00:13:42;6.25;;;0.93;;
81701;SDS011;71115;52.150;4.510;2023-07-20T00:16:08;3.33;;;0.90;;
81701;SDS011;71115;52.150;4.510;2023-07-20T00:18:34;2.03;;;0.77;;
81701;SDS011;71115;52.150;4.510;2023-07-20T00:21:00;2.63;;;0.98;;
81701;SDS011;71115;52.150;4.510;2023-07-20T00:23:26;2.30;;;0.70;;
81701;SDS011;71115;52.150;4.510;2023-07-20T00:25:53;2.17;;;1.00;;
81701;SDS011;71115;52.150;4.510;2023-07-20T00:28:19;2.25;;;1.00;;
81701;SDS011;71115;52.150;4.510;2023-07-20T00:30:45;2.50;;;0.85;;
81701;SDS011;71115;52.150;4.510;2023-07-20T00:33:11;1.90;;;0.80;;
81701;SDS011;71115;52.150;4.510;2023-07-20T00:38:03;4.55;;;0.70;;
81701;SDS011;71115;52.150;4.510;2023-07-20T00:42:55;3.03;;;0.75;;
81701;SDS011;71115;52.150;4.510;2023-07-20T00:45:21;1.98;;;0.80;;
81701;SDS011;71115;52.150;4.510;2023-07-20T00:47:47;2.75;;;1.00;;
81701;SDS011;71115;52.150;4.510;2023-07-20T00:50:14;2.33;;;0.80;;
81701;SDS011;71115;52.150;4.510;2023-07-20T00:52:40;3.47;;;1.42;;
81701;SDS011;71115;52.150;4.510;2023-07-20T00:55:06;1.77;;;0.88;;
81701;SDS011;71115;52.150;4.510;2023-07-20T00:57:33;1.42;;;0.60;;
81701;SDS011;71115;52.150;4.510;2023-07-20T00:59:59;2.03;;;0.70;;
81701;SDS011;71115;52.150;4.510;2023-07-20T01:02:25;2.78;;;0.85;;
81701;SDS011;71115;52.150;4.510;2023-07-20T01:04:51;1.30;;;0.60;;
81701;SDS011;71115;52.150;4.510;2023-07-20T01:10:07;1.55;;;0.68;;
81701;SDS011;71115;52.150;4.510;2023-07-20T01:12:38;1.42;;;0.75;;
81701;SDS011;71115;52.150;4.510;2023-07-20T01:15:06;1.15;;;0.73;;
81701;SDS011;71115;52.150;4.510;2023-07-20T01:17:33;3.08;;;0.68;;
81701;SDS011;71115;52.150;4.510;2023-07-20T01:19:59;2.50;;;1.02;;
81701;SDS011;71115;52.150;4.510;2023-07-20T01:33:05;2.92;;;1.05;;
81701;SDS011;71115;52.150;4.510;2023-07-20T01:35:32;1.70;;;0.55;;
81701;SDS011;71115;52.150;4.510;2023-07-20T01:37:59;2.70;;;0.60;;
81701;SDS011;71115;52.150;4.510;2023-07-20T01:40:26;2.42;;;0.77;;
81701;SDS011;71115;52.150;4.510;2023-07-20T01:42:52;1.27;;;0.70;;
81701;SDS011;71115;52.150;4.510;2023-07-20T01:45:18;0.85;;;0.40;;
81701;SDS011;71115;52.150;4.510;2023-07-20T01:47:44;1.35;;;0.60;;
81701;SDS011;71115;52.150;4.510;2023-07-20T01:50:10;4.63;;;0.88;;
81701;SDS011;71115;52.150;4.510;2023-07-20T01:52:36;1.52;;;0.65;;
81701;SDS011;71115;52.150;4.510;2023-07-20T01:55:02;1.52;;;0.60;;
81701;SDS011;71115;52.150;4.510;2023-07-20T01:57:29;1.70;;;0.77;;
81701;SDS011;71115;52.150;4.510;2023-07-20T01:59:55;0.82;;;0.43;;
81701;SDS011;71115;52.150;4.510;2023-07-20T02:02:23;1.90;;;0.55;;
81701;SDS011;71115;52.150;4.510;2023-07-20T02:04:49;1.52;;;0.73;;
81701;SDS011;71115;52.150;4.510;2023-07-20T02:07:15;1.38;;;0.60;;
81701;SDS011;71115;52.150;4.510;2023-07-20T02:09:41;4.13;;;0.70;;
81701;SDS011;71115;52.150;4.510;2023-07-20T02:12:07;1.17;;;0.60;;
81701;SDS011;71115;52.150;4.510;2023-07-20T02:14:34;2.05;;;0.60;;
81701;SDS011;71115;52.150;4.510;2023-07-20T02:17:00;1.38;;;0.57;;
81701;SDS011;71115;52.150;4.510;2023-07-20T02:19:29;1.80;;;1.33;;
81701;SDS011;71115;52.150;4.510;2023-07-20T02:21:55;1.05;;;0.47;;
81701;SDS011;71115;52.150;4.510;2023-07-20T02:24:22;2.10;;;0.52;;
81701;SDS011;71115;52.150;4.510;2023-07-20T02:26:48;1.70;;;0.50;;
81701;SDS011;71115;52.150;4.510;2023-07-20T02:29:17;3.42;;;0.50;;
81701;SDS011;71115;52.150;4.510;2023-07-20T02:31:43;0.77;;;0.50;;
81701;SDS011;71115;52.150;4.510;2023-07-20T02:34:09;1.15;;;0.50;;
81701;SDS011;71115;52.150;4.510;2023-07-20T02:36:35;1.30;;;0.50;;
81701;SDS011;71115;52.150;4.510;2023-07-20T02:39:01;1.35;;;0.60;;
81701;SDS011;71115;52.150;4.510;2023-07-20T02:41:29;1.63;;;0.70;;
81701;SDS011;71115;52.150;4.510;2023-07-20T02:43:55;2.25;;;0.60;;
81701;SDS011;71115;52.150;4.510;2023-07-20T02:46:21;1.98;;;0.90;;
81701;SDS011;71115;52.150;4.510;2023-07-20T02:48:47;0.88;;;0.50;;
81701;SDS011;71115;52.150;4.510;2023-07-20T02:51:13;1.00;;;0.40;;
81701;SDS011;71115;52.150;4.510;2023-07-20T02:53:39;2.58;;;0.60;;
81701;SDS011;71115;52.150;4.510;2023-07-20T02:56:06;1.52;;;0.60;;
81701;SDS011;71115;52.150;4.510;2023-07-20T03:01:01;1.23;;;0.50;;
81701;SDS011;71115;52.150;4.510;2023-07-20T03:03:28;1.83;;;0.60;;
81701;SDS011;71115;52.150;4.510;2023-07-20T03:05:54;0.50;;;0.30;;
81701;SDS011;71115;52.150;4.510;2023-07-20T03:08:21;0.93;;;0.50;;
81701;SDS011;71115;52.150;4.510;2023-07-20T03:10:47;1.75;;;0.57;;
81701;SDS011;71115;52.150;4.510;2023-07-20T03:15:41;3.33;;;0.55;;
81701;SDS011;71115;52.150;4.510;2023-07-20T03:18:07;0.95;;;0.40;;
81701;SDS011;71115;52.150;4.510;2023-07-20T03:20:35;0.57;;;0.40;;
81701;SDS011;71115;52.150;4.510;2023-07-20T03:23:01;0.77;;;0.40;;
81701;SDS011;71115;52.150;4.510;2023-07-20T03:25:27;0.30;;;0.20;;
81701;SDS011;71115;52.150;4.510;2023-07-20T03:27:53;1.42;;;0.63;;
81701;SDS011;71115;52.150;4.510;2023-07-20T03:30:19;0.88;;;0.40;;
81701;SDS011;71115;52.150;4.510;2023-07-20T03:32:45;0.88;;;0.38;;
81701;SDS011;71115;52.150;4.510;2023-07-20T03:35:11;3.45;;;0.73;;
81701;SDS011;71115;52.150;4.510;2023-07-20T03:37:37;1.88;;;0.65;;
81701;SDS011;71115;52.150;4.510;2023-07-20T03:40:04;2.33;;;0.40;;
81701;SDS011;71115;52.150;4.510;2023-07-20T03:44:56;1.75;;;0.40;;
81701;SDS011;71115;52.150;4.510;2023-07-20T03:47:22;124.78;;;27.02;;
81701;SDS011;71115;52.150;4.510;2023-07-20T03:49:49;125.63;;;22.98;;
81701;SDS011;71115;52.150;4.510;2023-07-20T03:52:15;110.68;;;25.50;;
81701;SDS011;71115;52.150;4.510;2023-07-20T03:54:41;148.88;;;30.10;;
81701;SDS011;71115;52.150;4.510;2023-07-20T03:57:07;114.53;;;26.55;;
81701;SDS011;71115;52.150;4.510;2023-07-20T03:59:34;131.82;;;25.45;;
81701;SDS011;71115;52.150;4.510;2023-07-20T04:02:00;127.07;;;25.02;;
81701;SDS011;71115;52.150;4.510;2023-07-20T04:04:26;122.78;;;26.92;;
81701;SDS011;71115;52.150;4.510;2023-07-20T04:06:53;90.78;;;21.85;;
81701;SDS011;71115;52.150;4.510;2023-07-20T04:09:19;121.35;;;27.15;;
81701;SDS011;71115;52.150;4.510;2023-07-20T04:11:45;95.15;;;24.20;;
81701;SDS011;71115;52.150;4.510;2023-07-20T04:14:11;80.40;;;20.60;;
81701;SDS011;71115;52.150;4.510;2023-07-20T04:16:37;100.25;;;22.05;;
81701;SDS011;71115;52.150;4.510;2023-07-20T04:19:03;77.13;;;19.60;;
81701;SDS011;71115;52.150;4.510;2023-07-20T04:21:29;77.78;;;18.55;;
81701;SDS011;71115;52.150;4.510;2023-07-20T04:23:55;69.65;;;19.88;;
81701;SDS011;71115;52.150;4.510;2023-07-20T04:26:21;70.97;;;18.35;;
81701;SDS011;71115;52.150;4.510;2023-07-20T04:28:47;70.15;;;18.35;;
81701;SDS011;71115;52.150;4.510;2023-07-20T04:31:15;73.80;;;18.20;;
81701;SDS011;71115;52.150;4.510;2023-07-20T04:33:41;62.92;;;17.85;;
81701;SDS011;71115;52.150;4.510;2023-07-20T04:36:07;75.88;;;19.05;;
81701;SDS011;71115;52.150;4.510;2023-07-20T04:38:34;60.38;;;16.20;;
81701;SDS011;71115;52.150;4.510;2023-07-20T04:41:00;69.97;;;16.77;;
81701;SDS011;71115;52.150;4.510;2023-07-20T04:43:27;63.90;;;15.68;;
81701;SDS011;71115;52.150;4.510;2023-07-20T04:45:53;61.80;;;15.32;;
81701;SDS011;71115;52.150;4.510;2023-07-20T04:48:19;59.22;;;14.68;;
81701;SDS011;71115;52.150;4.510;2023-07-20T04:50:45;48.22;;;13.57;;
81701;SDS011;71115;52.150;4.510;2023-07-20T04:55:37;54.20;;;14.77;;
81701;SDS011;71115;52.150;4.510;2023-07-20T04:58:04;44.63;;;13.05;;
81701;SDS011;71115;52.150;4.510;2023-07-20T05:02:56;50.85;;;15.30;;
81701;SDS011;71115;52.150;4.510;2023-07-20T05:05:22;58.75;;;15.80;;
81701;SDS011;71115;52.150;4.510;2023-07-20T05:07:48;50.47;;;14.18;;
81701;SDS011;71115;52.150;4.510;2023-07-20T05:10:14;48.40;;;13.20;;
81701;SDS011;71115;52.150;4.510;2023-07-20T05:12:40;46.95;;;13.05;;
81701;SDS011;71115;52.150;4.510;2023-07-20T05:15:06;43.17;;;11.90;;
81701;SDS011;71115;52.150;4.510;2023-07-20T05:19:58;24.95;;;6.85;;
81701;SDS011;71115;52.150;4.510;2023-07-20T05:22:24;36.03;;;9.48;;
81701;SDS011;71115;52.150;4.510;2023-07-20T05:24:50;33.58;;;9.18;;
81701;SDS011;71115;52.150;4.510;2023-07-20T05:27:16;29.58;;;10.25;;
81701;SDS011;71115;52.150;4.510;2023-07-20T05:29:45;36.33;;;10.60;;
81701;SDS011;71115;52.150;4.510;2023-07-20T05:32:12;29.42;;;9.02;;
81701;SDS011;71115;52.150;4.510;2023-07-20T05:34:38;27.48;;;7.72;;
81701;SDS011;71115;52.150;4.510;2023-07-20T05:37:04;29.35;;;9.00;;
81701;SDS011;71115;52.150;4.510;2023-07-20T05:41:56;32.83;;;7.93;;
81701;SDS011;71115;52.150;4.510;2023-07-20T05:44:22;33.30;;;8.93;;
81701;SDS011;71115;52.150;4.510;2023-07-20T05:46:48;32.83;;;8.07;;
81701;SDS011;71115;52.150;4.510;2023-07-20T05:49:14;27.92;;;9.15;;
81701;SDS011;71115;52.150;4.510;2023-07-20T05:51:40;23.30;;;7.43;;
81701;SDS011;71115;52.150;4.510;2023-07-20T05:54:06;29.30;;;8.38;;
81701;SDS011;71115;52.150;4.510;2023-07-20T05:56:33;31.33;;;8.60;;
81701;SDS011;71115;52.150;4.510;2023-07-20T05:58:59;28.25;;;7.85;;
81701;SDS011;71115;52.150;4.510;2023-07-20T06:01:25;23.50;;;6.43;;
81701;SDS011;71115;52.150;4.510;2023-07-20T06:03:53;22.92;;;7.28;;
81701;SDS011;71115;52.150;4.510;2023-07-20T06:06:19;23.45;;;7.38;;
81701;SDS011;71115;52.150;4.510;2023-07-20T06:08:45;25.77;;;6.53;;
81701;SDS011;71115;52.150;4.510;2023-07-20T06:11:11;21.02;;;6.07;;
81701;SDS011;71115;52.150;4.510;2023-07-20T06:13:37;22.75;;;6.18;;
81701;SDS011;71115;52.150;4.510;2023-07-20T06:16:03;21.60;;;7.05;;
81701;SDS011;71115;52.150;4.510;2023-07-20T06:18:29;22.55;;;6.50;;
81701;SDS011;71115;52.150;4.510;2023-07-20T06:20:56;21.88;;;6.68;;
81701;SDS011;71115;52.150;4.510;2023-07-20T06:25:48;17.63;;;6.10;;
81701;SDS011;71115;52.150;4.510;2023-07-20T06:28:14;21.42;;;6.30;;
81701;SDS011;71115;52.150;4.510;2023-07-20T06:30:40;22.90;;;5.60;;
81701;SDS011;71115;52.150;4.510;2023-07-20T06:33:06;23.42;;;6.82;;
81701;SDS011;71115;52.150;4.510;2023-07-20T06:37:58;18.08;;;6.55;;
81701;SDS011;71115;52.150;4.510;2023-07-20T06:40:25;18.25;;;5.57;;
81701;SDS011;71115;52.150;4.510;2023-07-20T06:42:51;16.27;;;5.65;;
81701;SDS011;71115;52.150;4.510;2023-07-20T06:45:17;17.35;;;5.82;;
81701;SDS011;71115;52.150;4.510;2023-07-20T06:47:43;15.20;;;5.00;;
81701;SDS011;71115;52.150;4.510;2023-07-20T06:50:09;14.13;;;5.03;;
81701;SDS011;71115;52.150;4.510;2023-07-20T06:52:36;16.38;;;5.53;;
81701;SDS011;71115;52.150;4.510;2023-07-20T06:55:02;15.77;;;5.05;;
81701;SDS011;71115;52.150;4.510;2023-07-20T06:59:54;14.25;;;4.60;;
81701;SDS011;71115;52.150;4.510;2023-07-20T07:02:20;11.75;;;4.15;;
81701;SDS011;71115;52.150;4.510;2023-07-20T07:04:46;12.70;;;4.40;;
81701;SDS011;71115;52.150;4.510;2023-07-20T07:07:15;15.15;;;4.07;;
81701;SDS011;71115;52.150;4.510;2023-07-20T07:09:41;12.20;;;4.85;;
81701;SDS011;71115;52.150;4.510;2023-07-20T07:14:33;8.98;;;3.47;;
81701;SDS011;71115;52.150;4.510;2023-07-20T07:17:00;16.45;;;4.47;;
81701;SDS011;71115;52.150;4.510;2023-07-20T07:19:26;14.13;;;4.20;;
81701;SDS011;71115;52.150;4.510;2023-07-20T07:21:52;14.15;;;3.92;;
81701;SDS011;71115;52.150;4.510;2023-07-20T07:24:18;13.27;;;4.75;;
81701;SDS011;71115;52.150;4.510;2023-07-20T07:26:44;14.38;;;5.70;;
81701;SDS011;71115;52.150;4.510;2023-07-20T07:29:10;14.48;;;4.47;;
81701;SDS011;71115;52.150;4.510;2023-07-20T07:31:36;11.75;;;3.75;;
81701;SDS011;71115;52.150;4.510;2023-07-20T07:34:03;12.35;;;3.80;;
81701;SDS011;71115;52.150;4.510;2023-07-20T07:38:55;16.10;;;4.20;;
81701;SDS011;71115;52.150;4.510;2023-07-20T07:41:21;12.85;;;3.72;;
81701;SDS011;71115;52.150;4.510;2023-07-20T07:43:47;12.15;;;3.65;;
81701;SDS011;71115;52.150;4.510;2023-07-20T07:46:14;11.05;;;3.50;;
81701;SDS011;71115;52.150;4.510;2023-07-20T07:48:40;7.95;;;2.95;;
81701;SDS011;71115;52.150;4.510;2023-07-20T07:51:06;10.05;;;2.75;;
81701;SDS011;71115;52.150;4.510;2023-07-20T07:53:32;9.40;;;3.20;;
81701;SDS011;71115;52.150;4.510;2023-07-20T07:56:00;9.48;;;3.58;;
81701;SDS011;71115;52.150;4.510;2023-07-20T07:58:28;11.30;;;3.83;;
81701;SDS011;71115;52.150;4.510;2023-07-20T08:00:54;9.88;;;2.42;;
81701;SDS011;71115;52.150;4.510;2023-07-20T08:03:20;5.05;;;1.92;;
81701;SDS011;71115;52.150;4.510;2023-07-20T08:05:46;6.75;;;2.10;;
81701;SDS011;71115;52.150;4.510;2023-07-20T08:08:12;6.55;;;2.45;;
81701;SDS011;71115;52.150;4.510;2023-07-20T08:10:38;6.38;;;2.13;;
81701;SDS011;71115;52.150;4.510;2023-07-20T08:13:04;7.75;;;1.67;;
81701;SDS011;71115;52.150;4.510;2023-07-20T08:15:31;6.47;;;2.10;;
81701;SDS011;71115;52.150;4.510;2023-07-20T08:17:56;8.00;;;2.25;;
81701;SDS011;71115;52.150;4.510;2023-07-20T08:20:22;7.13;;;2.42;;
81701;SDS011;71115;52.150;4.510;2023-07-20T08:22:52;9.20;;;3.03;;
81701;SDS011;71115;52.150;4.510;2023-07-20T08:25:18;10.32;;;3.17;;
81701;SDS011;71115;52.150;4.510;2023-07-20T08:27:44;6.22;;;2.08;;
81701;SDS011;71115;52.150;4.510;2023-07-20T08:30:12;6.32;;;2.30;;
81701;SDS011;71115;52.150;4.510;2023-07-20T08:32:38;7.95;;;2.70;;
81701;SDS011;71115;52.150;4.510;2023-07-20T08:35:04;9.00;;;2.85;;
81701;SDS011;71115;52.150;4.510;2023-07-20T08:37:31;8.77;;;2.13;;
81701;SDS011;71115;52.150;4.510;2023-07-20T08:40:00;7.25;;;2.22;;
81701;SDS011;71115;52.150;4.510;2023-07-20T08:42:26;6.32;;;1.95;;
81701;SDS011;71115;52.150;4.510;2023-07-20T08:44:52;6.82;;;2.00;;
81701;SDS011;71115;52.150;4.510;2023-07-20T08:47:19;5.30;;;1.73;;
81701;SDS011;71115;52.150;4.510;2023-07-20T08:49:48;6.28;;;1.65;;
81701;SDS011;71115;52.150;4.510;2023-07-20T08:52:14;4.78;;;1.83;;
81701;SDS011;71115;52.150;4.510;2023-07-20T08:57:06;5.50;;;1.73;;
81701;SDS011;71115;52.150;4.510;2023-07-20T09:01:59;4.75;;;1.90;;
81701;SDS011;71115;52.150;4.510;2023-07-20T09:04:25;6.43;;;2.20;;
81701;SDS011;71115;52.150;4.510;2023-07-20T09:06:51;5.60;;;1.67;;
81701;SDS011;71115;52.150;4.510;2023-07-20T09:11:46;6.38;;;1.77;;
81701;SDS011;71115;52.150;4.510;2023-07-20T09:14:12;5.32;;;1.63;;
81701;SDS011;71115;52.150;4.510;2023-07-20T09:16:47;4.43;;;1.80;;
81701;SDS011;71115;52.150;4.510;2023-07-20T09:19:14;5.10;;;1.50;;
81701;SDS011;71115;52.150;4.510;2023-07-20T09:21:41;5.15;;;1.67;;
81701;SDS011;71115;52.150;4.510;2023-07-20T09:24:09;6.70;;;1.55;;
81701;SDS011;71115;52.150;4.510;2023-07-20T09:26:40;4.68;;;1.70;;
81701;SDS011;71115;52.150;4.510;2023-07-20T09:29:07;4.45;;;1.50;;
81701;SDS011;71115;52.150;4.510;2023-07-20T09:31:34;9.50;;;2.65;;
81701;SDS011;71115;52.150;4.510;2023-07-20T09:34:00;6.38;;;1.77;;
81701;SDS011;71115;52.150;4.510;2023-07-20T09:36:27;3.15;;;1.13;;
81701;SDS011;71115;52.150;4.510;2023-07-20T09:38:53;3.83;;;1.67;;
81701;SDS011;71115;52.150;4.510;2023-07-20T09:41:20;3.78;;;1.70;;
81701;SDS011;71115;52.150;4.510;2023-07-20T09:43:47;4.85;;;1.70;;
81701;SDS011;71115;52.150;4.510;2023-07-20T09:46:13;4.22;;;1.45;;
81701;SDS011;71115;52.150;4.510;2023-07-20T09:48:39;3.03;;;1.33;;
81701;SDS011;71115;52.150;4.510;2023-07-20T09:51:06;3.70;;;1.55;;
81701;SDS011;71115;52.150;4.510;2023-07-20T09:53:33;5.57;;;1.95;;
81701;SDS011;71115;52.150;4.510;2023-07-20T09:56:03;3.60;;;1.30;;
81701;SDS011;71115;52.150;4.510;2023-07-20T09:58:29;3.85;;;1.02;;
81701;SDS011;71115;52.150;4.510;2023-07-20T10:00:57;2.85;;;1.00;;
81701;SDS011;71115;52.150;4.510;2023-07-20T10:03:28;5.07;;;1.30;;
81701;SDS011;71115;52.150;4.510;2023-07-20T10:06:08;3.13;;;1.20;;
81701;SDS011;71115;52.150;4.510;2023-07-20T10:08:38;3.72;;;1.30;;
81701;SDS011;71115;52.150;4.510;2023-07-20T10:11:05;3.10;;;1.00;;
81701;SDS011;71115;52.150;4.510;2023-07-20T10:13:31;4.03;;;1.20;;
81701;SDS011;71115;52.150;4.510;2023-07-20T10:16:10;3.30;;;1.35;;
81701;SDS011;71115;52.150;4.510;2023-07-20T10:21:02;3.65;;;1.10;;
81701;SDS011;71115;52.150;4.510;2023-07-20T10:23:29;5.05;;;1.00;;
81701;SDS011;71115;52.150;4.510;2023-07-20T10:25:55;3.70;;;1.27;;
81701;SDS011;71115;52.150;4.510;2023-07-20T10:28:22;4.22;;;1.20;;
81701;SDS011;71115;52.150;4.510;2023-07-20T10:30:48;2.80;;;1.23;;
81701;SDS011;71115;52.150;4.510;2023-07-20T10:38:18;3.00;;;0.85;;
81701;SDS011;71115;52.150;4.510;2023-07-20T10:40:53;4.35;;;1.00;;
81701;SDS011;71115;52.150;4.510;2023-07-20T10:43:19;2.75;;;0.95;;
81701;SDS011;71115;52.150;4.510;2023-07-20T10:45:52;5.53;;;1.10;;
81701;SDS011;71115;52.150;4.510;2023-07-20T10:48:20;2.17;;;1.00;;
81701;SDS011;71115;52.150;4.510;2023-07-20T10:51:08;3.33;;;0.93;;
81701;SDS011;71115;52.150;4.510;2023-07-20T10:53:32;2.45;;;0.80;;
81701;SDS011;71115;52.150;4.510;2023-07-20T10:58:33;2.67;;;1.02;;
81701;SDS011;71115;52.150;4.510;2023-07-20T11:01:00;2.50;;;0.82;;
81701;SDS011;71115;52.150;4.510;2023-07-20T11:03:29;3.10;;;1.02;;
81701;SDS011;71115;52.150;4.510;2023-07-20T11:05:56;2.80;;;0.88;;
81701;SDS011;71115;52.150;4.510;2023-07-20T11:08:38;2.60;;;0.85;;
81701;SDS011;71115;52.150;4.510;2023-07-20T11:13:56;1.80;;;0.70;;
81701;SDS011;71115;52.150;4.510;2023-07-20T11:16:35;3.30;;;0.95;;
81701;SDS011;71115;52.150;4.510;2023-07-20T11:19:02;3.13;;;0.80;;
81701;SDS011;71115;52.150;4.510;2023-07-20T11:21:29;2.65;;;1.00;;
81701;SDS011;71115;52.150;4.510;2023-07-20T11:23:55;1.58;;;0.70;;
81701;SDS011;71115;52.150;4.510;2023-07-20T11:28:50;2.50;;;0.85;;
81701;SDS011;71115;52.150;4.510;2023-07-20T11:31:17;2.50;;;0.90;;
81701;SDS011;71115;52.150;4.510;2023-07-20T11:33:43;3.08;;;1.15;;
81701;SDS011;71115;52.150;4.510;2023-07-20T11:38:35;2.00;;;0.90;;
81701;SDS011;71115;52.150;4.510;2023-07-20T11:41:05;3.35;;;0.80;;
81701;SDS011;71115;52.150;4.510;2023-07-20T11:43:31;2.85;;;0.95;;
81701;SDS011;71115;52.150;4.510;2023-07-20T11:45:57;3.10;;;0.90;;
81701;SDS011;71115;52.150;4.510;2023-07-20T11:48:23;3.05;;;0.80;;
81701;SDS011;71115;52.150;4.510;2023-07-20T11:50:49;4.53;;;0.90;;
81701;SDS011;71115;52.150;4.510;2023-07-20T11:53:15;1.35;;;0.60;;
81701;SDS011;71115;52.150;4.510;2023-07-20T11:55:41;2.58;;;0.90;;
81701;SDS011;71115;52.150;4.510;2023-07-20T12:00:34;2.25;;;0.75;;
81701;SDS011;71115;52.150;4.510;2023-07-20T12:03:00;2.20;;;0.77;;
81701;SDS011;71115;52.150;4.510;2023-07-20T12:05:26;2.25;;;1.00;;
81701;SDS011;71115;52.150;4.510;2023-07-20T12:10:25;2.97;;;0.95;;
81701;SDS011;71115;52.150;4.510;2023-07-20T12:12:52;2.20;;;0.70;;
81701;SDS011;71115;52.150;4.510;2023-07-20T12:17:51;1.85;;;0.93;;
81701;SDS011;71115;52.150;4.510;2023-07-20T12:20:27;2.05;;;0.80;;
81701;SDS011;71115;52.150;4.510;2023-07-20T12:22:56;1.33;;;0.60;;
81701;SDS011;71115;52.150;4.510;2023-07-20T12:25:22;3.38;;;0.80;;
81701;SDS011;71115;52.150;4.510;2023-07-20T12:30:14;2.03;;;0.73;;
81701;SDS011;71115;52.150;4.510;2023-07-20T12:35:07;2.30;;;0.60;;
81701;SDS011;71115;52.150;4.510;2023-07-20T12:37:33;1.33;;;0.55;;
81701;SDS011;71115;52.150;4.510;2023-07-20T12:39:59;2.85;;;0.70;;
81701;SDS011;71115;52.150;4.510;2023-07-20T12:42:25;3.38;;;0.90;;
81701;SDS011;71115;52.150;4.510;2023-07-20T12:44:51;3.55;;;0.90;;
81701;SDS011;71115;52.150;4.510;2023-07-20T12:47:17;1.45;;;0.50;;
81701;SDS011;71115;52.150;4.510;2023-07-20T12:52:10;2.03;;;0.57;;
81701;SDS011;71115;52.150;4.510;2023-07-20T12:57:02;2.63;;;0.70;;
81701;SDS011;71115;52.150;4.510;2023-07-20T12:59:28;1.40;;;0.60;;
81701;SDS011;71115;52.150;4.510;2023-07-20T13:01:54;1.52;;;0.63;;
81701;SDS011;71115;52.150;4.510;2023-07-20T13:04:20;2.22;;;1.00;;
81701;SDS011;71115;52.150;4.510;2023-07-20T13:06:46;0.98;;;0.38;;
81701;SDS011;71115;52.150;4.510;2023-07-20T13:09:12;2.35;;;0.85;;
81701;SDS011;71115;52.150;4.510;2023-07-20T13:11:38;1.92;;;0.60;;
81701;SDS011;71115;52.150;4.510;2023-07-20T13:14:04;2.42;;;0.75;;
81701;SDS011;71115;52.150;4.510;2023-07-20T13:16:30;1.38;;;0.60;;
81701;SDS011;71115;52.150;4.510;2023-07-20T13:18:56;1.05;;;0.45;;
81701;SDS011;71115;52.150;4.510;2023-07-20T13:21:22;1.92;;;0.60;;
81701;SDS011;71115;52.150;4.510;2023-07-20T13:23:49;1.52;;;0.60;;
81701;SDS011;71115;52.150;4.510;2023-07-20T13:26:15;1.75;;;0.52;;
81701;SDS011;71115;52.150;4.510;2023-07-20T13:31:07;2.35;;;0.63;;
81701;SDS011;71115;52.150;4.510;2023-07-20T13:33:35;1.88;;;0.60;;
81701;SDS011;71115;52.150;4.510;2023-07-20T13:36:02;1.88;;;0.80;;
81701;SDS011;71115;52.150;4.510;2023-07-20T13:38:30;1.35;;;0.50;;
81701;SDS011;71115;52.150;4.510;2023-07-20T13:40:56;1.85;;;0.60;;
81701;SDS011;71115;52.150;4.510;2023-07-20T13:43:22;1.77;;;0.70;;
81701;SDS011;71115;52.150;4.510;2023-07-20T13:45:48;1.73;;;0.60;;
81701;SDS011;71115;52.150;4.510;2023-07-20T13:48:14;1.75;;;0.50;;
81701;SDS011;71115;52.150;4.510;2023-07-20T13:50:42;1.05;;;0.60;;
81701;SDS011;71115;52.150;4.510;2023-07-20T13:53:08;1.23;;;0.50;;
81701;SDS011;71115;52.150;4.510;2023-07-20T13:55:34;1.90;;;0.70;;
81701;SDS011;71115;52.150;4.510;2023-07-20T13:58:02;1.70;;;0.60;;
81701;SDS011;71115;52.150;4.510;2023-07-20T14:00:28;1.90;;;0.68;;
81701;SDS011;71115;52.150;4.510;2023-07-20T14:02:57;1.85;;;0.73;;
81701;SDS011;71115;52.150;4.510;2023-07-20T14:05:23;2.03;;;0.77;;
81701;SDS011;71115;52.150;4.510;2023-07-20T14:07:50;1.00;;;0.47;;
81701;SDS011;71115;52.150;4.510;2023-07-20T14:10:16;1.55;;;0.52;;
81701;SDS011;71115;52.150;4.510;2023-07-20T14:12:43;1.10;;;0.43;;
81701;SDS011;71115;52.150;4.510;2023-07-20T14:15:10;1.52;;;0.50;;
81701;SDS011;71115;52.150;4.510;2023-07-20T14:20:02;1.17;;;0.60;;
81701;SDS011;71115;52.150;4.510;2023-07-20T14:22:31;1.15;;;0.50;;
81701;SDS011;71115;52.150;4.510;2023-07-20T14:24:57;0.93;;;0.47;;
81701;SDS011;71115;52.150;4.510;2023-07-20T14:27:23;2.22;;;0.60;;
81701;SDS011;71115;52.150;4.510;2023-07-20T14:29:50;2.10;;;0.50;;
81701;SDS011;71115;52.150;4.510;2023-07-20T14:34:41;2.17;;;0.50;;
81701;SDS011;71115;52.150;4.510;2023-07-20T14:37:08;1.35;;;0.50;;
81701;SDS011;71115;52.150;4.510;2023-07-20T14:39:34;1.92;;;0.50;;
81701;SDS011;71115;52.150;4.510;2023-07-20T14:44:27;1.08;;;0.52;;
81701;SDS011;71115;52.150;4.510;2023-07-20T14:46:53;0.52;;;0.35;;
81701;SDS011;71115;52.150;4.510;2023-07-20T14:51:45;0.55;;;0.40;;
81701;SDS011;71115;52.150;4.510;2023-07-20T14:54:12;1.25;;;0.32;;
81701;SDS011;71115;52.150;4.510;2023-07-20T14:56:38;0.40;;;0.30;;
81701;SDS011;71115;52.150;4.510;2023-07-20T14:59:05;1.80;;;0.60;;
81701;SDS011;71115;52.150;4.510;2023-07-20T15:03:57;1.40;;;0.40;;
81701;SDS011;71115;52.150;4.510;2023-07-20T15:06:25;1.58;;;0.52;;
81701;SDS011;71115;52.150;4.510;2023-07-20T15:11:17;1.70;;;0.60;;
81701;SDS011;71115;52.150;4.510;2023-07-20T15:13:43;1.85;;;0.70;;
81701;SDS011;71115;52.150;4.510;2023-07-20T15:16:09;1.45;;;0.43;;
81701;SDS011;71115;52.150;4.510;2023-07-20T15:18:36;1.08;;;0.40;;
81701;SDS011;71115;52.150;4.510;2023-07-20T15:21:02;0.93;;;0.40;;
81701;SDS011;71115;52.150;4.510;2023-07-20T15:25:54;0.85;;;0.40;;
81701;SDS011;71115;52.150;4.510;2023-07-20T15:28:20;1.25;;;0.43;;
81701;SDS011;71115;52.150;4.510;2023-07-20T15:30:46;0.98;;;0.50;;
81701;SDS011;71115;52.150;4.510;2023-07-20T15:33:12;1.52;;;0.50;;
81701;SDS011;71115;52.150;4.510;2023-07-20T15:35:39;1.27;;;0.52;;
81701;SDS011;71115;52.150;4.510;2023-07-20T15:40:33;1.08;;;0.60;;
81701;SDS011;71115;52.150;4.510;2023-07-20T15:42:59;1.10;;;0.50;;
81701;SDS011;71115;52.150;4.510;2023-07-20T15:45:25;1.33;;;0.47;;
81701;SDS011;71115;52.150;4.510;2023-07-20T15:47:54;1.05;;;0.43;;
81701;SDS011;71115;52.150;4.510;2023-07-20T15:50:20;2.28;;;0.50;;
81701;SDS011;71115;52.150;4.510;2023-07-20T15:55:12;0.55;;;0.20;;
81701;SDS011;71115;52.150;4.510;2023-07-20T15:57:38;0.80;;;0.32;;
81701;SDS011;71115;52.150;4.510;2023-07-20T16:00:04;1.17;;;0.40;;
81701;SDS011;71115;52.150;4.510;2023-07-20T16:02:35;0.50;;;0.30;;
81701;SDS011;71115;52.150;4.510;2023-07-20T16:05:02;0.73;;;0.40;;
81701;SDS011;71115;52.150;4.510;2023-07-20T16:07:28;0.75;;;0.20;;
81701;SDS011;71115;52.150;4.510;2023-07-20T16:09:55;0.93;;;0.50;;
81701;SDS011;71115;52.150;4.510;2023-07-20T16:12:25;1.33;;;0.40;;
81701;SDS011;71115;52.150;4.510;2023-07-20T16:14:54;1.50;;;0.50;;
81701;SDS011;71115;52.150;4.510;2023-07-20T16:17:20;1.02;;;0.43;;
81701;SDS011;71115;52.150;4.510;2023-07-20T16:19:46;0.85;;;0.40;;
81701;SDS011;71115;52.150;4.510;2023-07-20T16:22:12;0.70;;;0.30;;
81701;SDS011;71115;52.150;4.510;2023-07-20T16:24:38;0.75;;;0.30;;
81701;SDS011;71115;52.150;4.510;2023-07-20T16:27:05;1.60;;;0.60;;
81701;SDS011;71115;52.150;4.510;2023-07-20T16:29:31;0.68;;;0.40;;
81701;SDS011;71115;52.150;4.510;2023-07-20T16:34:23;1.33;;;0.43;;
81701;SDS011;71115;52.150;4.510;2023-07-20T16:36:49;1.27;;;0.50;;